sensor_id;sensor_type;location;lat;lon;timestamp;P1;durP1;ratioP1;P2;durP2;ratioP2
9974;SDS011;5028;50.974;4.968;2024-01-15T00:02:04;18.90;;;12.67;;
9974;SDS011;5028;50.974;4.968;2024-01-15T00:04:35;21.23;;;12.93;;
9974;SDS011;5028;50.974;4.968;2024-01-15T00:07:05;19.33;;;12.63;;
9974;SDS011;5028;50.974;4.968;2024-01-15T00:09:33;16.37;;;11.90;;
9974;SDS011;5028;50.974;4.968;2024-01-15T00:12:04;16.93;;;12.17;;
9974;SDS011;5028;50.974;4.968;2024-01-15T00:14:33;19.27;;;12.93;;
9974;SDS011;5028;50.974;4.968;2024-01-15T00:17:02;18.83;;;12.87;;
9974;SDS011;5028;50.974;4.968;2024-01-15T00:19:31;16.97;;;11.67;;
9974;SDS011;5028;50.974;4.968;2024-01-15T00:21:59;16.13;;;11.43;;
9974;SDS011;5028;50.974;4.968;2024-01-15T00:24:28;15.87;;;11.20;;
9974;SDS011;5028;50.974;4.968;2024-01-15T00:26:57;17.43;;;12.13;;
9974;SDS011;5028;50.974;4.968;2024-01-15T00:29:26;17.27;;;11.33;;
9974;SDS011;5028;50.974;4.968;2024-01-15T00:31:55;16.50;;;10.97;;
9974;SDS011;5028;50.974;4.968;2024-01-15T00:34:23;17.27;;;11.37;;
9974;SDS011;5028;50.974;4.968;2024-01-15T00:36:52;22.63;;;12.27;;
9974;SDS011;5028;50.974;4.968;2024-01-15T00:39:21;16.20;;;11.60;;
9974;SDS011;5028;50.974;4.968;2024-01-15T00:41:50;18.40;;;11.83;;
9974;SDS011;5028;50.974;4.968;2024-01-15T00:44:19;20.03;;;12.50;;
9974;SDS011;5028;50.974;4.968;2024-01-15T00:46:49;20.13;;;12.73;;
9974;SDS011;5028;50.974;4.968;2024-01-15T00:49:18;20.57;;;12.93;;
9974;SDS011;5028;50.974;4.968;2024-01-15T00:51:46;22.93;;;12.93;;
9974;SDS011;5028;50.974;4.968;2024-01-15T00:54:15;21.33;;;13.53;;
9974;SDS011;5028;50.974;4.968;2024-01-15T00:56:44;21.30;;;13.07;;
9974;SDS011;5028;50.974;4.968;2024-01-15T00:59:12;22.27;;;12.37;;
9974;SDS011;5028;50.974;4.968;2024-01-15T01:01:42;19.80;;;12.03;;
9974;SDS011;5028;50.974;4.968;2024-01-15T01:04:14;16.53;;;11.93;;
9974;SDS011;5028;50.974;4.968;2024-01-15T01:06:42;19.03;;;12.33;;
9974;SDS011;5028;50.974;4.968;2024-01-15T01:09:11;20.60;;;12.73;;
9974;SDS011;5028;50.974;4.968;2024-01-15T01:11:39;23.37;;;12.43;;
9974;SDS011;5028;50.974;4.968;2024-01-15T01:14:08;17.20;;;11.90;;
9974;SDS011;5028;50.974;4.968;2024-01-15T01:16:37;20.90;;;12.80;;
9974;SDS011;5028;50.974;4.968;2024-01-15T01:19:06;20.33;;;11.93;;
9974;SDS011;5028;50.974;4.968;2024-01-15T01:21:37;19.13;;;12.67;;
9974;SDS011;5028;50.974;4.968;2024-01-15T01:24:05;19.90;;;11.43;;
9974;SDS011;5028;50.974;4.968;2024-01-15T01:26:34;17.53;;;11.63;;
9974;SDS011;5028;50.974;4.968;2024-01-15T01:29:02;18.50;;;10.87;;
9974;SDS011;5028;50.974;4.968;2024-01-15T01:31:31;16.33;;;11.23;;
9974;SDS011;5028;50.974;4.968;2024-01-15T01:33:59;18.27;;;11.47;;
9974;SDS011;5028;50.974;4.968;2024-01-15T01:36:28;15.67;;;11.47;;
9974;SDS011;5028;50.974;4.968;2024-01-15T01:39:00;18.30;;;11.63;;
9974;SDS011;5028;50.974;4.968;2024-01-15T01:41:29;16.43;;;10.70;;
9974;SDS011;5028;50.974;4.968;2024-01-15T01:43:58;19.33;;;11.63;;
9974;SDS011;5028;50.974;4.968;2024-01-15T01:46:27;16.23;;;11.17;;
9974;SDS011;5028;50.974;4.968;2024-01-15T01:48:56;18.23;;;10.93;;
9974;SDS011;5028;50.974;4.968;2024-01-15T01:51:30;16.07;;;10.97;;
9974;SDS011;5028;50.974;4.968;2024-01-15T01:54:01;15.73;;;11.27;;
9974;SDS011;5028;50.974;4.968;2024-01-15T01:56:30;15.93;;;10.87;;
9974;SDS011;5028;50.974;4.968;2024-01-15T01:58:58;16.37;;;10.43;;
9974;SDS011;5028;50.974;4.968;2024-01-15T02:01:28;15.03;;;10.43;;
9974;SDS011;5028;50.974;4.968;2024-01-15T02:03:57;18.03;;;11.57;;
9974;SDS011;5028;50.974;4.968;2024-01-15T02:06:26;15.80;;;10.80;;
9974;SDS011;5028;50.974;4.968;2024-01-15T02:08:55;18.30;;;11.30;;
9974;SDS011;5028;50.974;4.968;2024-01-15T02:11:25;16.20;;;10.53;;
9974;SDS011;5028;50.974;4.968;2024-01-15T02:13:54;15.03;;;10.50;;
9974;SDS011;5028;50.974;4.968;2024-01-15T02:16:22;16.60;;;11.27;;
9974;SDS011;5028;50.974;4.968;2024-01-15T02:18:51;14.17;;;10.30;;
9974;SDS011;5028;50.974;4.968;2024-01-15T02:21:20;17.27;;;10.90;;
9974;SDS011;5028;50.974;4.968;2024-01-15T02:23:50;17.43;;;10.47;;
9974;SDS011;5028;50.974;4.968;2024-01-15T02:26:19;14.87;;;10.23;;
9974;SDS011;5028;50.974;4.968;2024-01-15T02:28:47;16.37;;;9.87;;
9974;SDS011;5028;50.974;4.968;2024-01-15T02:31:16;12.47;;;8.37;;
9974;SDS011;5028;50.974;4.968;2024-01-15T02:33:45;13.57;;;8.63;;
9974;SDS011;5028;50.974;4.968;2024-01-15T02:36:14;14.43;;;8.77;;
9974;SDS011;5028;50.974;4.968;2024-01-15T02:38:43;12.37;;;8.33;;
9974;SDS011;5028;50.974;4.968;2024-01-15T02:41:13;12.27;;;8.57;;
9974;SDS011;5028;50.974;4.968;2024-01-15T02:43:42;12.43;;;8.03;;
9974;SDS011;5028;50.974;4.968;2024-01-15T02:46:10;11.03;;;8.13;;
9974;SDS011;5028;50.974;4.968;2024-01-15T02:48:39;11.87;;;7.90;;
9974;SDS011;5028;50.974;4.968;2024-01-15T02:51:07;9.03;;;7.10;;
9974;SDS011;5028;50.974;4.968;2024-01-15T02:53:36;10.50;;;7.70;;
9974;SDS011;5028;50.974;4.968;2024-01-15T02:56:05;9.53;;;6.30;;
9974;SDS011;5028;50.974;4.968;2024-01-15T02:58:36;8.70;;;7.00;;
9974;SDS011;5028;50.974;4.968;2024-01-15T03:01:04;9.97;;;6.40;;
9974;SDS011;5028;50.974;4.968;2024-01-15T03:03:33;8.77;;;6.20;;
9974;SDS011;5028;50.974;4.968;2024-01-15T03:06:01;6.90;;;5.43;;
9974;SDS011;5028;50.974;4.968;2024-01-15T03:08:30;7.63;;;5.03;;
9974;SDS011;5028;50.974;4.968;2024-01-15T03:10:59;8.27;;;5.20;;
9974;SDS011;5028;50.974;4.968;2024-01-15T03:13:27;6.33;;;5.10;;
9974;SDS011;5028;50.974;4.968;2024-01-15T03:15:57;7.97;;;5.10;;
9974;SDS011;5028;50.974;4.968;2024-01-15T03:18:26;7.10;;;4.50;;
9974;SDS011;5028;50.974;4.968;2024-01-15T03:20:55;5.20;;;4.10;;
9974;SDS011;5028;50.974;4.968;2024-01-15T03:23:23;5.13;;;4.40;;
9974;SDS011;5028;50.974;4.968;2024-01-15T03:25:51;6.80;;;4.50;;
9974;SDS011;5028;50.974;4.968;2024-01-15T03:28:19;6.70;;;4.40;;
9974;SDS011;5028;50.974;4.968;2024-01-15T03:30:48;6.50;;;4.33;;
9974;SDS011;5028;50.974;4.968;2024-01-15T03:33:18;7.03;;;4.37;;
9974;SDS011;5028;50.974;4.968;2024-01-15T03:35:47;6.07;;;4.20;;
9974;SDS011;5028;50.974;4.968;2024-01-15T03:38:15;5.63;;;4.40;;
9974;SDS011;5028;50.974;4.968;2024-01-15T03:40:44;5.03;;;4.00;;
9974;SDS011;5028;50.974;4.968;2024-01-15T03:43:13;7.13;;;4.17;;
9974;SDS011;5028;50.974;4.968;2024-01-15T03:45:42;8.13;;;3.90;;
9974;SDS011;5028;50.974;4.968;2024-01-15T03:48:10;4.93;;;3.90;;
9974;SDS011;5028;50.974;4.968;2024-01-15T03:50:40;5.43;;;4.07;;
9974;SDS011;5028;50.974;4.968;2024-01-15T03:53:09;4.17;;;3.63;;
9974;SDS011;5028;50.974;4.968;2024-01-15T03:55:38;5.80;;;3.43;;
9974;SDS011;5028;50.974;4.968;2024-01-15T03:58:06;3.87;;;3.00;;
9974;SDS011;5028;50.974;4.968;2024-01-15T04:00:34;5.67;;;3.20;;
9974;SDS011;5028;50.974;4.968;2024-01-15T04:03:03;6.40;;;3.80;;
9974;SDS011;5028;50.974;4.968;2024-01-15T04:05:32;5.30;;;3.40;;
9974;SDS011;5028;50.974;4.968;2024-01-15T04:08:02;4.57;;;3.03;;
9974;SDS011;5028;50.974;4.968;2024-01-15T04:10:32;6.93;;;3.60;;
9974;SDS011;5028;50.974;4.968;2024-01-15T04:13:00;5.50;;;3.27;;
9974;SDS011;5028;50.974;4.968;2024-01-15T04:15:30;4.90;;;3.53;;
9974;SDS011;5028;50.974;4.968;2024-01-15T04:17:58;6.37;;;3.60;;
9974;SDS011;5028;50.974;4.968;2024-01-15T04:20:27;7.00;;;4.10;;
9974;SDS011;5028;50.974;4.968;2024-01-15T04:22:56;5.47;;;4.03;;
9974;SDS011;5028;50.974;4.968;2024-01-15T04:25:26;7.90;;;4.17;;
9974;SDS011;5028;50.974;4.968;2024-01-15T04:27:55;6.33;;;4.57;;
9974;SDS011;5028;50.974;4.968;2024-01-15T04:30:23;6.70;;;4.90;;
9974;SDS011;5028;50.974;4.968;2024-01-15T04:32:52;7.70;;;5.00;;
9974;SDS011;5028;50.974;4.968;2024-01-15T04:35:20;8.13;;;5.27;;
9974;SDS011;5028;50.974;4.968;2024-01-15T04:37:49;7.07;;;5.20;;
9974;SDS011;5028;50.974;4.968;2024-01-15T04:40:17;6.63;;;5.57;;
9974;SDS011;5028;50.974;4.968;2024-01-15T04:42:47;10.03;;;5.97;;
9974;SDS011;5028;50.974;4.968;2024-01-15T04:45:15;8.87;;;6.57;;
9974;SDS011;5028;50.974;4.968;2024-01-15T04:47:45;9.97;;;6.80;;
9974;SDS011;5028;50.974;4.968;2024-01-15T04:50:13;11.37;;;6.77;;
9974;SDS011;5028;50.974;4.968;2024-01-15T04:52:42;10.53;;;7.47;;
9974;SDS011;5028;50.974;4.968;2024-01-15T04:55:11;9.00;;;6.67;;
9974;SDS011;5028;50.974;4.968;2024-01-15T04:57:39;10.93;;;7.13;;
9974;SDS011;5028;50.974;4.968;2024-01-15T05:00:10;11.10;;;7.37;;
9974;SDS011;5028;50.974;4.968;2024-01-15T05:02:40;10.20;;;7.17;;
9974;SDS011;5028;50.974;4.968;2024-01-15T05:05:09;10.60;;;8.10;;
9974;SDS011;5028;50.974;4.968;2024-01-15T05:07:38;11.20;;;8.27;;
9974;SDS011;5028;50.974;4.968;2024-01-15T05:10:07;12.10;;;7.87;;
9974;SDS011;5028;50.974;4.968;2024-01-15T05:12:35;11.57;;;8.30;;
9974;SDS011;5028;50.974;4.968;2024-01-15T05:15:04;14.40;;;9.17;;
9974;SDS011;5028;50.974;4.968;2024-01-15T05:17:34;11.40;;;8.27;;
9974;SDS011;5028;50.974;4.968;2024-01-15T05:20:03;14.57;;;9.37;;
9974;SDS011;5028;50.974;4.968;2024-01-15T05:22:33;14.97;;;10.17;;
9974;SDS011;5028;50.974;4.968;2024-01-15T05:25:02;14.10;;;8.80;;
9974;SDS011;5028;50.974;4.968;2024-01-15T05:27:31;13.10;;;9.77;;
9974;SDS011;5028;50.974;4.968;2024-01-15T05:29:59;14.40;;;10.37;;
9974;SDS011;5028;50.974;4.968;2024-01-15T05:32:28;13.80;;;9.80;;
9974;SDS011;5028;50.974;4.968;2024-01-15T05:34:58;13.73;;;10.20;;
9974;SDS011;5028;50.974;4.968;2024-01-15T05:37:26;15.27;;;10.53;;
9974;SDS011;5028;50.974;4.968;2024-01-15T05:39:55;17.53;;;10.27;;
9974;SDS011;5028;50.974;4.968;2024-01-15T05:42:23;14.23;;;10.27;;
9974;SDS011;5028;50.974;4.968;2024-01-15T05:44:53;17.37;;;10.73;;
9974;SDS011;5028;50.974;4.968;2024-01-15T05:47:21;14.73;;;10.87;;
9974;SDS011;5028;50.974;4.968;2024-01-15T05:49:50;15.03;;;10.40;;
9974;SDS011;5028;50.974;4.968;2024-01-15T05:52:20;13.00;;;9.93;;
9974;SDS011;5028;50.974;4.968;2024-01-15T05:54:49;14.70;;;9.57;;
9974;SDS011;5028;50.974;4.968;2024-01-15T05:57:18;14.33;;;9.27;;
9974;SDS011;5028;50.974;4.968;2024-01-15T05:59:47;12.73;;;9.40;;
9974;SDS011;5028;50.974;4.968;2024-01-15T06:02:15;13.93;;;9.10;;
9974;SDS011;5028;50.974;4.968;2024-01-15T06:04:44;12.03;;;8.70;;
9974;SDS011;5028;50.974;4.968;2024-01-15T06:07:13;13.77;;;9.20;;
9974;SDS011;5028;50.974;4.968;2024-01-15T06:09:42;15.23;;;9.43;;
9974;SDS011;5028;50.974;4.968;2024-01-15T06:12:11;15.27;;;8.37;;
9974;SDS011;5028;50.974;4.968;2024-01-15T06:14:40;12.67;;;8.83;;
9974;SDS011;5028;50.974;4.968;2024-01-15T06:17:09;12.93;;;9.13;;
9974;SDS011;5028;50.974;4.968;2024-01-15T06:19:37;11.43;;;8.10;;
9974;SDS011;5028;50.974;4.968;2024-01-15T06:22:06;11.50;;;8.00;;
9974;SDS011;5028;50.974;4.968;2024-01-15T06:24:34;11.77;;;8.17;;
9974;SDS011;5028;50.974;4.968;2024-01-15T06:27:04;11.63;;;7.63;;
9974;SDS011;5028;50.974;4.968;2024-01-15T06:29:36;11.47;;;7.53;;
9974;SDS011;5028;50.974;4.968;2024-01-15T06:32:05;12.57;;;7.60;;
9974;SDS011;5028;50.974;4.968;2024-01-15T06:34:34;11.73;;;6.90;;
9974;SDS011;5028;50.974;4.968;2024-01-15T06:37:03;11.60;;;7.40;;
9974;SDS011;5028;50.974;4.968;2024-01-15T06:39:31;11.33;;;6.90;;
9974;SDS011;5028;50.974;4.968;2024-01-15T06:42:00;11.23;;;6.40;;
9974;SDS011;5028;50.974;4.968;2024-01-15T06:44:30;10.50;;;6.73;;
9974;SDS011;5028;50.974;4.968;2024-01-15T06:46:59;9.50;;;5.90;;
9974;SDS011;5028;50.974;4.968;2024-01-15T06:49:29;8.97;;;5.60;;
9974;SDS011;5028;50.974;4.968;2024-01-15T06:51:57;9.00;;;6.00;;
9974;SDS011;5028;50.974;4.968;2024-01-15T06:54:26;9.30;;;4.93;;
9974;SDS011;5028;50.974;4.968;2024-01-15T06:56:54;8.30;;;4.80;;
9974;SDS011;5028;50.974;4.968;2024-01-15T06:59:23;9.77;;;4.30;;
9974;SDS011;5028;50.974;4.968;2024-01-15T07:01:53;7.07;;;4.03;;
9974;SDS011;5028;50.974;4.968;2024-01-15T07:04:22;7.80;;;4.00;;
9974;SDS011;5028;50.974;4.968;2024-01-15T07:06:50;5.37;;;3.50;;
9974;SDS011;5028;50.974;4.968;2024-01-15T07:09:19;7.30;;;3.20;;
9974;SDS011;5028;50.974;4.968;2024-01-15T07:11:48;4.93;;;3.00;;
9974;SDS011;5028;50.974;4.968;2024-01-15T07:14:16;7.23;;;2.93;;
9974;SDS011;5028;50.974;4.968;2024-01-15T07:16:45;5.07;;;2.77;;
9974;SDS011;5028;50.974;4.968;2024-01-15T07:19:15;6.70;;;2.80;;
9974;SDS011;5028;50.974;4.968;2024-01-15T07:21:44;4.07;;;2.33;;
9974;SDS011;5028;50.974;4.968;2024-01-15T07:24:13;5.37;;;2.70;;
9974;SDS011;5028;50.974;4.968;2024-01-15T07:26:42;4.43;;;2.23;;
9974;SDS011;5028;50.974;4.968;2024-01-15T07:29:11;4.83;;;2.20;;
9974;SDS011;5028;50.974;4.968;2024-01-15T07:31:39;5.77;;;2.80;;
9974;SDS011;5028;50.974;4.968;2024-01-15T07:34:08;4.60;;;2.37;;
9974;SDS011;5028;50.974;4.968;2024-01-15T07:36:38;7.27;;;2.50;;
9974;SDS011;5028;50.974;4.968;2024-01-15T07:39:06;4.53;;;2.27;;
9974;SDS011;5028;50.974;4.968;2024-01-15T07:41:34;6.30;;;2.10;;
9974;SDS011;5028;50.974;4.968;2024-01-15T07:44:03;6.07;;;2.33;;
9974;SDS011;5028;50.974;4.968;2024-01-15T07:46:34;5.07;;;2.03;;
9974;SDS011;5028;50.974;4.968;2024-01-15T07:49:02;5.23;;;2.17;;
9974;SDS011;5028;50.974;4.968;2024-01-15T07:51:32;5.50;;;2.20;;
9974;SDS011;5028;50.974;4.968;2024-01-15T07:54:02;4.93;;;2.00;;
9974;SDS011;5028;50.974;4.968;2024-01-15T07:56:31;3.47;;;2.10;;
9974;SDS011;5028;50.974;4.968;2024-01-15T07:58:59;4.03;;;1.80;;
9974;SDS011;5028;50.974;4.968;2024-01-15T08:01:28;6.90;;;2.27;;
9974;SDS011;5028;50.974;4.968;2024-01-15T08:03:56;6.27;;;2.57;;
9974;SDS011;5028;50.974;4.968;2024-01-15T08:06:25;5.67;;;2.60;;
9974;SDS011;5028;50.974;4.968;2024-01-15T08:08:53;5.33;;;2.33;;
9974;SDS011;5028;50.974;4.968;2024-01-15T08:11:23;5.87;;;2.30;;
9974;SDS011;5028;50.974;4.968;2024-01-15T08:13:51;5.80;;;2.00;;
9974;SDS011;5028;50.974;4.968;2024-01-15T08:16:20;6.57;;;2.20;;
9974;SDS011;5028;50.974;4.968;2024-01-15T08:18:51;7.80;;;2.17;;
9974;SDS011;5028;50.974;4.968;2024-01-15T08:21:19;7.00;;;2.70;;
9974;SDS011;5028;50.974;4.968;2024-01-15T08:23:48;6.20;;;2.30;;
9974;SDS011;5028;50.974;4.968;2024-01-15T08:26:16;6.43;;;3.27;;
9974;SDS011;5028;50.974;4.968;2024-01-15T08:28:46;4.67;;;1.90;;
9974;SDS011;5028;50.974;4.968;2024-01-15T08:31:15;5.33;;;2.30;;
9974;SDS011;5028;50.974;4.968;2024-01-15T08:33:44;4.57;;;2.10;;
9974;SDS011;5028;50.974;4.968;2024-01-15T08:36:13;4.40;;;2.03;;
9974;SDS011;5028;50.974;4.968;2024-01-15T08:38:42;6.13;;;2.20;;
9974;SDS011;5028;50.974;4.968;2024-01-15T08:41:11;3.93;;;2.00;;
9974;SDS011;5028;50.974;4.968;2024-01-15T08:43:39;4.90;;;2.23;;
9974;SDS011;5028;50.974;4.968;2024-01-15T08:46:09;3.57;;;2.37;;
9974;SDS011;5028;50.974;4.968;2024-01-15T08:48:37;5.97;;;2.40;;
9974;SDS011;5028;50.974;4.968;2024-01-15T08:51:06;6.27;;;2.30;;
9974;SDS011;5028;50.974;4.968;2024-01-15T08:53:36;3.93;;;2.00;;
9974;SDS011;5028;50.974;4.968;2024-01-15T08:56:05;4.97;;;2.13;;
9974;SDS011;5028;50.974;4.968;2024-01-15T08:58:35;6.37;;;2.20;;
9974;SDS011;5028;50.974;4.968;2024-01-15T09:01:04;6.03;;;2.40;;
9974;SDS011;5028;50.974;4.968;2024-01-15T09:03:34;4.10;;;1.97;;
9974;SDS011;5028;50.974;4.968;2024-01-15T09:06:03;7.73;;;3.20;;
9974;SDS011;5028;50.974;4.968;2024-01-15T09:08:33;8.53;;;2.27;;
9974;SDS011;5028;50.974;4.968;2024-01-15T09:11:01;7.67;;;2.43;;
9974;SDS011;5028;50.974;4.968;2024-01-15T09:13:30;3.47;;;2.30;;
9974;SDS011;5028;50.974;4.968;2024-01-15T09:15:58;8.60;;;2.30;;
9974;SDS011;5028;50.974;4.968;2024-01-15T09:18:29;6.37;;;2.03;;
9974;SDS011;5028;50.974;4.968;2024-01-15T09:21:00;7.30;;;2.60;;
9974;SDS011;5028;50.974;4.968;2024-01-15T09:23:29;5.20;;;2.23;;
9974;SDS011;5028;50.974;4.968;2024-01-15T09:25:58;8.73;;;2.93;;
9974;SDS011;5028;50.974;4.968;2024-01-15T09:28:26;6.17;;;2.83;;
9974;SDS011;5028;50.974;4.968;2024-01-15T09:30:55;2.67;;;2.00;;
9974;SDS011;5028;50.974;4.968;2024-01-15T09:33:24;4.57;;;2.30;;
9974;SDS011;5028;50.974;4.968;2024-01-15T09:35:55;6.03;;;2.57;;
9974;SDS011;5028;50.974;4.968;2024-01-15T09:38:25;9.50;;;2.77;;
9974;SDS011;5028;50.974;4.968;2024-01-15T09:40:54;7.43;;;2.13;;
9974;SDS011;5028;50.974;4.968;2024-01-15T09:43:23;7.30;;;2.20;;
9974;SDS011;5028;50.974;4.968;2024-01-15T09:45:52;7.20;;;2.53;;
9974;SDS011;5028;50.974;4.968;2024-01-15T09:48:22;11.07;;;2.40;;
9974;SDS011;5028;50.974;4.968;2024-01-15T09:50:51;7.53;;;2.00;;
9974;SDS011;5028;50.974;4.968;2024-01-15T09:53:20;7.10;;;2.10;;
9974;SDS011;5028;50.974;4.968;2024-01-15T09:55:51;3.60;;;1.80;;
9974;SDS011;5028;50.974;4.968;2024-01-15T09:58:21;6.33;;;2.33;;
9974;SDS011;5028;50.974;4.968;2024-01-15T10:00:51;7.90;;;2.50;;
9974;SDS011;5028;50.974;4.968;2024-01-15T10:03:20;5.30;;;2.17;;
9974;SDS011;5028;50.974;4.968;2024-01-15T10:05:49;4.40;;;2.00;;
9974;SDS011;5028;50.974;4.968;2024-01-15T10:08:18;5.83;;;2.30;;
9974;SDS011;5028;50.974;4.968;2024-01-15T10:10:48;7.63;;;2.53;;
9974;SDS011;5028;50.974;4.968;2024-01-15T10:13:26;8.77;;;2.23;;
9974;SDS011;5028;50.974;4.968;2024-01-15T10:16:07;5.87;;;2.80;;
9974;SDS011;5028;50.974;4.968;2024-01-15T10:18:38;7.17;;;2.50;;
9974;SDS011;5028;50.974;4.968;2024-01-15T10:21:07;9.40;;;2.60;;
9974;SDS011;5028;50.974;4.968;2024-01-15T10:23:35;3.93;;;2.17;;
9974;SDS011;5028;50.974;4.968;2024-01-15T10:26:04;7.43;;;2.83;;
9974;SDS011;5028;50.974;4.968;2024-01-15T10:28:34;5.27;;;1.80;;
9974;SDS011;5028;50.974;4.968;2024-01-15T10:31:03;7.53;;;2.60;;
9974;SDS011;5028;50.974;4.968;2024-01-15T10:33:32;7.80;;;2.33;;
9974;SDS011;5028;50.974;4.968;2024-01-15T10:36:01;5.47;;;2.10;;
9974;SDS011;5028;50.974;4.968;2024-01-15T10:38:30;6.67;;;2.10;;
9974;SDS011;5028;50.974;4.968;2024-01-15T10:40:59;7.73;;;2.20;;
9974;SDS011;5028;50.974;4.968;2024-01-15T10:43:27;10.03;;;2.40;;
9974;SDS011;5028;50.974;4.968;2024-01-15T10:45:57;7.00;;;2.53;;
9974;SDS011;5028;50.974;4.968;2024-01-15T10:48:26;5.27;;;1.90;;
9974;SDS011;5028;50.974;4.968;2024-01-15T10:50:57;3.67;;;1.83;;
9974;SDS011;5028;50.974;4.968;2024-01-15T10:53:25;6.27;;;1.80;;
9974;SDS011;5028;50.974;4.968;2024-01-15T10:55:54;6.63;;;2.00;;
9974;SDS011;5028;50.974;4.968;2024-01-15T10:58:25;7.03;;;2.27;;
9974;SDS011;5028;50.974;4.968;2024-01-15T11:01:00;5.30;;;2.10;;
9974;SDS011;5028;50.974;4.968;2024-01-15T11:03:29;8.10;;;1.97;;
9974;SDS011;5028;50.974;4.968;2024-01-15T11:05:58;4.23;;;1.83;;
9974;SDS011;5028;50.974;4.968;2024-01-15T11:08:27;6.00;;;2.30;;
9974;SDS011;5028;50.974;4.968;2024-01-15T11:10:57;7.67;;;1.90;;
9974;SDS011;5028;50.974;4.968;2024-01-15T11:13:39;5.00;;;2.00;;
9974;SDS011;5028;50.974;4.968;2024-01-15T11:16:11;5.43;;;2.20;;
9974;SDS011;5028;50.974;4.968;2024-01-15T11:18:41;5.00;;;2.37;;
9974;SDS011;5028;50.974;4.968;2024-01-15T11:21:23;8.73;;;2.23;;
9974;SDS011;5028;50.974;4.968;2024-01-15T11:23:54;7.00;;;2.00;;
9974;SDS011;5028;50.974;4.968;2024-01-15T11:26:28;3.90;;;2.00;;
9974;SDS011;5028;50.974;4.968;2024-01-15T11:28:58;5.90;;;2.13;;
9974;SDS011;5028;50.974;4.968;2024-01-15T11:31:29;6.87;;;2.43;;
9974;SDS011;5028;50.974;4.968;2024-01-15T11:34:13;2.83;;;1.70;;
9974;SDS011;5028;50.974;4.968;2024-01-15T11:37:00;5.80;;;2.07;;
9974;SDS011;5028;50.974;4.968;2024-01-15T11:39:39;3.73;;;1.97;;
9974;SDS011;5028;50.974;4.968;2024-01-15T11:42:09;8.00;;;2.00;;
9974;SDS011;5028;50.974;4.968;2024-01-15T11:44:39;6.27;;;1.80;;
9974;SDS011;5028;50.974;4.968;2024-01-15T11:47:10;6.07;;;1.83;;
9974;SDS011;5028;50.974;4.968;2024-01-15T11:50:00;4.73;;;1.87;;
9974;SDS011;5028;50.974;4.968;2024-01-15T11:52:33;8.03;;;2.20;;
9974;SDS011;5028;50.974;4.968;2024-01-15T11:55:10;8.73;;;4.60;;
9974;SDS011;5028;50.974;4.968;2024-01-15T11:57:40;4.60;;;2.00;;
9974;SDS011;5028;50.974;4.968;2024-01-15T12:00:13;9.50;;;3.23;;
9974;SDS011;5028;50.974;4.968;2024-01-15T12:02:44;4.63;;;1.60;;
9974;SDS011;5028;50.974;4.968;2024-01-15T12:05:13;4.83;;;1.63;;
9974;SDS011;5028;50.974;4.968;2024-01-15T12:07:44;10.00;;;2.07;;
9974;SDS011;5028;50.974;4.968;2024-01-15T12:10:14;2.80;;;1.30;;
9974;SDS011;5028;50.974;4.968;2024-01-15T12:12:56;7.13;;;1.80;;
9974;SDS011;5028;50.974;4.968;2024-01-15T12:15:27;4.60;;;1.93;;
9974;SDS011;5028;50.974;4.968;2024-01-15T12:17:58;5.10;;;1.67;;
9974;SDS011;5028;50.974;4.968;2024-01-15T12:20:29;4.60;;;1.90;;
9974;SDS011;5028;50.974;4.968;2024-01-15T12:22:59;3.30;;;1.60;;
9974;SDS011;5028;50.974;4.968;2024-01-15T12:25:30;4.93;;;2.07;;
9974;SDS011;5028;50.974;4.968;2024-01-15T12:27:59;3.63;;;2.33;;
9974;SDS011;5028;50.974;4.968;2024-01-15T12:30:29;4.10;;;2.50;;
9974;SDS011;5028;50.974;4.968;2024-01-15T12:33:02;3.63;;;1.80;;
9974;SDS011;5028;50.974;4.968;2024-01-15T12:35:31;5.37;;;2.20;;
9974;SDS011;5028;50.974;4.968;2024-01-15T12:38:03;6.43;;;1.80;;
9974;SDS011;5028;50.974;4.968;2024-01-15T12:40:32;7.90;;;1.70;;
9974;SDS011;5028;50.974;4.968;2024-01-15T12:43:03;5.47;;;1.73;;
9974;SDS011;5028;50.974;4.968;2024-01-15T12:45:33;5.27;;;2.20;;
9974;SDS011;5028;50.974;4.968;2024-01-15T12:48:06;4.07;;;1.90;;
9974;SDS011;5028;50.974;4.968;2024-01-15T12:50:35;8.20;;;1.90;;
9974;SDS011;5028;50.974;4.968;2024-01-15T12:53:03;4.50;;;1.37;;
9974;SDS011;5028;50.974;4.968;2024-01-15T12:55:33;4.93;;;1.77;;
9974;SDS011;5028;50.974;4.968;2024-01-15T12:58:02;6.73;;;1.53;;
9974;SDS011;5028;50.974;4.968;2024-01-15T13:00:30;3.77;;;1.50;;
9974;SDS011;5028;50.974;4.968;2024-01-15T13:02:59;6.70;;;1.77;;
9974;SDS011;5028;50.974;4.968;2024-01-15T13:05:32;1.83;;;1.30;;
9974;SDS011;5028;50.974;4.968;2024-01-15T13:08:03;3.90;;;1.40;;
9974;SDS011;5028;50.974;4.968;2024-01-15T13:10:32;6.77;;;3.57;;
9974;SDS011;5028;50.974;4.968;2024-01-15T13:13:01;4.60;;;1.60;;
9974;SDS011;5028;50.974;4.968;2024-01-15T13:15:29;3.63;;;1.73;;
9974;SDS011;5028;50.974;4.968;2024-01-15T13:17:58;2.47;;;1.63;;
9974;SDS011;5028;50.974;4.968;2024-01-15T13:20:27;2.53;;;1.90;;
9974;SDS011;5028;50.974;4.968;2024-01-15T13:22:57;2.33;;;1.40;;
9974;SDS011;5028;50.974;4.968;2024-01-15T13:25:26;2.93;;;1.40;;
9974;SDS011;5028;50.974;4.968;2024-01-15T13:27:54;2.10;;;1.90;;
9974;SDS011;5028;50.974;4.968;2024-01-15T13:30:23;1.83;;;1.30;;
9974;SDS011;5028;50.974;4.968;2024-01-15T13:32:52;4.77;;;2.60;;
9974;SDS011;5028;50.974;4.968;2024-01-15T13:35:23;3.47;;;2.60;;
9974;SDS011;5028;50.974;4.968;2024-01-15T13:37:51;3.77;;;2.10;;
9974;SDS011;5028;50.974;4.968;2024-01-15T13:40:21;5.87;;;2.00;;
9974;SDS011;5028;50.974;4.968;2024-01-15T13:42:50;3.43;;;2.07;;
9974;SDS011;5028;50.974;4.968;2024-01-15T13:45:21;5.10;;;1.97;;
9974;SDS011;5028;50.974;4.968;2024-01-15T13:47:50;3.97;;;2.10;;
9974;SDS011;5028;50.974;4.968;2024-01-15T13:50:18;4.43;;;2.30;;
9974;SDS011;5028;50.974;4.968;2024-01-15T13:52:50;3.73;;;2.27;;
9974;SDS011;5028;50.974;4.968;2024-01-15T13:55:18;2.50;;;2.20;;
9974;SDS011;5028;50.974;4.968;2024-01-15T13:57:49;3.90;;;2.60;;
9974;SDS011;5028;50.974;4.968;2024-01-15T14:00:17;2.97;;;2.50;;
9974;SDS011;5028;50.974;4.968;2024-01-15T14:02:46;2.77;;;2.50;;
9974;SDS011;5028;50.974;4.968;2024-01-15T14:05:15;3.50;;;2.20;;
9974;SDS011;5028;50.974;4.968;2024-01-15T14:07:44;1.97;;;1.70;;
9974;SDS011;5028;50.974;4.968;2024-01-15T14:10:14;2.10;;;1.90;;
9974;SDS011;5028;50.974;4.968;2024-01-15T14:12:44;2.20;;;1.77;;
9974;SDS011;5028;50.974;4.968;2024-01-15T14:15:12;4.00;;;2.00;;
9974;SDS011;5028;50.974;4.968;2024-01-15T14:17:41;1.93;;;1.83;;
9974;SDS011;5028;50.974;4.968;2024-01-15T14:20:10;2.73;;;1.80;;
9974;SDS011;5028;50.974;4.968;2024-01-15T14:22:40;2.53;;;2.33;;
9974;SDS011;5028;50.974;4.968;2024-01-15T14:25:09;2.53;;;2.20;;
9974;SDS011;5028;50.974;4.968;2024-01-15T14:27:37;5.37;;;2.20;;
9974;SDS011;5028;50.974;4.968;2024-01-15T14:30:08;2.57;;;1.90;;
9974;SDS011;5028;50.974;4.968;2024-01-15T14:32:40;2.27;;;1.90;;
9974;SDS011;5028;50.974;4.968;2024-01-15T14:35:08;2.33;;;1.67;;
9974;SDS011;5028;50.974;4.968;2024-01-15T14:37:37;4.13;;;2.23;;
9974;SDS011;5028;50.974;4.968;2024-01-15T14:40:06;2.47;;;2.17;;
9974;SDS011;5028;50.974;4.968;2024-01-15T14:42:36;3.17;;;1.80;;
9974;SDS011;5028;50.974;4.968;2024-01-15T14:45:05;3.53;;;1.80;;
9974;SDS011;5028;50.974;4.968;2024-01-15T14:47:38;2.27;;;1.80;;
9974;SDS011;5028;50.974;4.968;2024-01-15T14:50:08;2.20;;;1.83;;
9974;SDS011;5028;50.974;4.968;2024-01-15T14:52:38;2.40;;;1.93;;
9974;SDS011;5028;50.974;4.968;2024-01-15T14:55:08;1.57;;;1.47;;
9974;SDS011;5028;50.974;4.968;2024-01-15T14:57:37;2.60;;;1.60;;
9974;SDS011;5028;50.974;4.968;2024-01-15T15:00:08;2.33;;;1.60;;
9974;SDS011;5028;50.974;4.968;2024-01-15T15:02:38;3.00;;;1.50;;
9974;SDS011;5028;50.974;4.968;2024-01-15T15:05:07;3.30;;;1.67;;
9974;SDS011;5028;50.974;4.968;2024-01-15T15:07:36;3.47;;;1.30;;
9974;SDS011;5028;50.974;4.968;2024-01-15T15:10:06;1.13;;;1.10;;
9974;SDS011;5028;50.974;4.968;2024-01-15T15:12:36;5.17;;;1.20;;
9974;SDS011;5028;50.974;4.968;2024-01-15T15:15:05;4.00;;;0.90;;
9974;SDS011;5028;50.974;4.968;2024-01-15T15:17:39;2.83;;;1.40;;
9974;SDS011;5028;50.974;4.968;2024-01-15T15:20:08;3.37;;;1.03;;
9974;SDS011;5028;50.974;4.968;2024-01-15T15:22:38;2.90;;;1.40;;